Time;durP1;ratioP1;P1;durP2;ratioP2;P2;SDS_P1;SDS_P2;PMS_P1;PMS_P2;Temp;Humidity;BMP_temperature;BMP_pressure;BME280_temperature;BME280_humidity;BME280_pressure;Samples;Min_cycle;Max_cycle;Signal;HPM_P1;HPM_P2
2022/06/29 00:01:30;;;;;;;5.43;4.90;;;;;;;;;;4992375;28;20431;-89
2022/06/29 00:03:56;;;;;;;6.40;4.50;;;;;;;;;;4999183;28;20445;-88
2022/06/29 00:06:22;;;;;;;5.60;4.73;;;;;;;;;;4995526;28;20456;-88
2022/06/29 00:08:48;;;;;;;11.20;4.43;;;;;;;;;;5000308;28;20512;-88
2022/06/29 00:11:14;;;;;;;7.83;4.17;;;;;;;;;;4997477;28;20699;-88
2022/06/29 00:13:40;;;;;;;5.87;4.93;;;;;;;;;;4996893;28;20433;-88
2022/06/29 00:16:06;;;;;;;4.20;3.80;;;;;;;;;;4998103;28;21004;-89
2022/06/29 00:18:32;;;;;;;6.10;4.53;;;;;;;;;;4996544;28;20480;-89
2022/06/29 00:20:57;;;;;;;5.70;5.20;;;;;;;;;;5001701;28;20450;-88
2022/06/29 00:23:23;;;;;;;5.60;4.90;;;;;;;;;;5002529;28;20429;-88
2022/06/29 00:25:49;;;;;;;4.10;3.80;;;;;;;;;;4999943;28;20564;-88
2022/06/29 00:28:15;;;;;;;8.20;4.03;;;;;;;;;;5012380;28;20571;-87
2022/06/29 00:30:41;;;;;;;5.73;4.77;;;;;;;;;;5018730;28;20441;-87
2022/06/29 00:33:07;;;;;;;5.20;3.67;;;;;;;;;;5014614;28;20428;-87
2022/06/29 00:35:33;;;;;;;4.83;4.43;;;;;;;;;;4998894;28;20517;-87
2022/06/29 00:37:59;;;;;;;5.60;4.53;;;;;;;;;;4986330;28;20453;-87
2022/06/29 00:40:25;;;;;;;5.47;4.40;;;;;;;;;;5003493;28;20435;-87
2022/06/29 00:42:51;;;;;;;9.00;4.73;;;;;;;;;;4989687;28;20441;-87
2022/06/29 00:45:17;;;;;;;6.87;4.93;;;;;;;;;;4993987;28;20465;-86
2022/06/29 01:00:42;;;;;;;5.07;4.23;;;;;;;;;;651473;22;21626;-88
2022/06/29 01:03:08;;;;;;;5.43;4.63;;;;;;;;;;5032256;28;20505;-88
2022/06/29 01:05:34;;;;;;;4.90;4.40;;;18.30;99.90;;;;;;5032386;28;20460;-88
2022/06/29 01:08:00;;;;;;;6.90;4.93;;;;;;;;;;5021152;28;20453;-87
2022/06/29 01:10:26;;;;;;;8.73;4.87;;;;;;;;;;5029361;28;20417;-87
2022/06/29 01:12:53;;;;;;;5.73;4.70;;;17.90;99.90;;;;;;5022660;28;20512;-86
2022/06/29 01:15:19;;;;;;;5.73;5.17;;;18.00;99.90;;;;;;5022620;28;20415;-87
2022/06/29 01:17:46;;;;;;;7.43;5.27;;;18.10;99.90;;;;;;5029260;28;20428;-90
2022/06/29 01:20:13;;;;;;;5.20;4.77;;;18.10;99.90;;;;;;5035311;28;20467;-87
2022/06/29 01:22:39;;;;;;;6.90;5.37;;;18.10;99.90;;;;;;5031078;28;20495;-86
2022/06/29 01:25:06;;;;;;;7.40;5.50;;;18.00;99.90;;;;;;5037999;28;20452;-87
2022/06/29 01:27:32;;;;;;;5.63;4.90;;;;;;;;;;5035555;28;20805;-87
2022/06/29 01:29:58;;;;;;;14.07;5.00;;;;;;;;;;5037245;28;20432;-87
2022/06/29 01:32:24;;;;;;;4.37;3.90;;;;;;;;;;5025872;28;20448;-87
2022/06/29 01:34:50;;;;;;;6.57;5.00;;;17.90;99.90;;;;;;5039434;28;20443;-88
2022/06/29 01:37:16;;;;;;;7.63;5.00;;;18.10;99.90;;;;;;5036187;28;20420;-87
2022/06/29 01:39:43;;;;;;;6.77;4.40;;;;;;;;;;5037542;28;20201;-87
2022/06/29 01:42:09;;;;;;;6.43;5.13;;;18.00;99.90;;;;;;5028555;28;20453;-89
2022/06/29 01:44:35;;;;;;;7.83;5.70;;;18.00;99.90;;;;;;5032042;28;20467;-87
2022/06/29 01:47:02;;;;;;;6.90;6.20;;;17.90;99.90;;;;;;5039420;28;20467;-88
2022/06/29 01:49:28;;;;;;;5.23;4.70;;;;;;;;;;5033441;28;20430;-87
2022/06/29 01:51:57;;;;;;;5.83;5.33;;;17.90;99.90;;;;;;5031451;28;20443;-87
2022/06/29 01:54:23;;;;;;;7.93;4.77;;;;;;;;;;5036168;28;20967;-86
2022/06/29 01:56:49;;;;;;;5.97;5.37;;;;;;;;;;5031331;28;20455;-86
2022/06/29 01:59:15;;;;;;;9.40;5.30;;;;;;;;;;5030503;28;20451;-87
2022/06/29 02:01:41;;;;;;;5.30;4.20;;;;;;;;;;5030265;28;20479;-87
2022/06/29 02:04:07;;;;;;;5.73;4.90;;;;;;;;;;5028827;28;20978;-87
2022/06/29 02:06:33;;;;;;;6.70;4.50;;;;;;;;;;5031311;28;21048;-88
2022/06/29 02:08:59;;;;;;;5.50;5.00;;;18.40;99.90;;;;;;5034740;28;20520;-87
2022/06/29 02:11:25;;;;;;;6.90;5.10;;;18.20;99.90;;;;;;5028579;28;20483;-88
2022/06/29 02:13:51;;;;;;;6.00;4.67;;;;;;;;;;5028484;28;20191;-88
2022/06/29 02:16:17;;;;;;;16.43;6.93;;;;;;;;;;5028696;28;20273;-89
2022/06/29 02:18:43;;;;;;;5.30;4.73;;;;;;;;;;5034211;28;20458;-89
2022/06/29 02:21:09;;;;;;;5.47;4.97;;;;;;;;;;5029868;28;20452;-88
2022/06/29 02:23:35;;;;;;;7.50;4.27;;;;;;;;;;5034758;28;21111;-89
2022/06/29 02:26:01;;;;;;;5.13;4.63;;;;;;;;;;5028101;28;20495;-89
2022/06/29 02:28:27;;;;;;;13.07;4.97;;;;;;;;;;5026516;28;20440;-90
2022/06/29 02:36:22;;;;;;;5.87;5.27;;;;;;;;;;5033832;28;20439;-89
2022/06/29 02:38:49;;;;;;;5.30;4.80;;;18.90;99.90;;;;;;5034474;28;20857;-90
2022/06/29 02:41:15;;;;;;;5.97;5.37;;;;;;;;;;5032113;28;20539;-88
2022/06/29 02:43:40;;;;;;;5.07;4.57;;;;;;;;;;5030868;28;20538;-89
2022/06/29 02:46:06;;;;;;;8.17;5.03;;;;;;;;;;5026833;28;20535;-90
2022/06/29 02:48:32;;;;;;;5.07;4.67;;;;;;;;;;5027626;28;20446;-89
2022/06/29 02:50:59;;;;;;;5.63;5.17;;;;;;;;;;5024191;28;20479;-88
2022/06/29 02:53:25;;;;;;;6.67;5.07;;;;;;;;;;5023337;28;20473;-90
2022/06/29 02:55:50;;;;;;;6.50;5.00;;;;;;;;;;5021405;28;20439;-88
2022/06/29 02:58:16;;;;;;;9.23;5.70;;;;;;;;;;5025632;28;20466;-90
2022/06/29 03:00:42;;;;;;;5.70;5.20;;;;;;;;;;5025482;28;20515;-90
2022/06/29 03:03:08;;;;;;;6.10;5.47;;;;;;;;;;5029332;28;22302;-90
2022/06/29 03:05:34;;;;;;;8.70;5.93;;;;;;;;;;5026386;28;20529;-88
2022/06/29 03:08:00;;;;;;;7.20;5.50;;;;;;;;;;5025894;28;20433;-88
2022/06/29 03:10:26;;;;;;;6.67;4.40;;;;;;;;;;5031119;28;20441;-89
2022/06/29 03:12:52;;;;;;;6.63;4.83;;;18.60;99.90;;;;;;5028231;28;20429;-90
2022/06/29 03:15:18;;;;;;;5.70;4.67;;;;;;;;;;5029036;28;20435;-90
2022/06/29 03:17:44;;;;;;;14.50;5.33;;;;;;;;;;5040112;28;20429;-90
2022/06/29 03:20:13;;;;;;;5.57;5.07;;;18.30;99.90;;;;;;5026558;28;20436;-90
2022/06/29 03:22:39;;;;;;;4.17;3.70;;;;;;;;;;5032171;28;20997;-90
2022/06/29 03:25:05;;;;;;;8.17;4.80;;;18.20;99.90;;;;;;5030415;28;20468;-89
2022/06/29 03:27:32;;;;;;;4.83;4.33;;;;;;;;;;5028910;28;20485;-87
2022/06/29 03:29:58;;;;;;;6.80;4.60;;;17.50;99.90;;;;;;5027633;28;20563;-88
2022/06/29 03:32:24;;;;;;;4.80;4.40;;;;;;;;;;5032943;28;20452;-88
2022/06/29 03:34:50;;;;;;;5.37;4.87;;;;;;;;;;5031567;28;20462;-88
2022/06/29 03:37:16;;;;;;;6.43;4.73;;;;;;;;;;5028714;28;20433;-86
2022/06/29 03:39:42;;;;;;;6.93;5.83;;;;;;;;;;5029559;28;20457;-88
2022/06/29 03:42:08;;;;;;;5.60;4.80;;;;;;;;;;5033126;28;20462;-89
2022/06/29 03:44:34;;;;;;;5.53;4.80;;;;;;;;;;5037941;28;20433;-87
2022/06/29 03:47:00;;;;;;;6.70;4.37;;;;;;;;;;5040690;28;20441;-88
2022/06/29 03:49:26;;;;;;;4.47;3.70;;;;;;;;;;5040396;28;20486;-87
2022/06/29 03:51:52;;;;;;;10.73;5.03;;;;;;;;;;5038792;28;20457;-87
2022/06/29 03:54:18;;;;;;;8.23;5.10;;;;;;;;;;5028543;28;20436;-86
2022/06/29 03:56:44;;;;;;;6.00;4.30;;;;;;;;;;5026027;28;20425;-87
2022/06/29 03:59:10;;;;;;;6.13;5.07;;;;;;;;;;5027348;28;20436;-88
2022/06/29 04:01:36;;;;;;;6.03;5.40;;;;;;;;;;5033268;28;20456;-90
2022/06/29 04:04:02;;;;;;;6.77;5.20;;;;;;;;;;5031914;28;20440;-86
2022/06/29 04:06:27;;;;;;;5.70;5.20;;;;;;;;;;5038506;28;20464;-89
2022/06/29 04:08:53;;;;;;;9.03;5.50;;;;;;;;;;5038214;28;20535;-92
2022/06/29 04:14:04;;;;;;;6.83;5.57;;;;;;;;;;5038881;28;20483;-92
2022/06/29 04:16:30;;;;;;;7.50;5.23;;;;;;;;;;5026832;28;20429;-93
2022/06/29 04:18:56;;;;;;;4.60;4.20;;;;;;;;;;5026287;28;20456;-91
2022/06/29 04:21:22;;;;;;;7.90;4.70;;;;;;;;;;5023125;28;20488;-91
2022/06/29 04:23:48;;;;;;;1.67;1.43;;;;;;;;;;5027343;28;20432;-92
2022/06/29 04:26:14;;;;;;;2.23;1.27;;;;;;;;;;5054747;28;20456;-94
2022/06/29 04:28:40;;;;;;;3.70;2.00;;;;;;;;;;5052937;28;20420;-91
2022/06/29 04:31:15;;;;;;;2.43;1.33;;;;;;;;;;5045373;28;20459;-92
2022/06/29 04:33:41;;;;;;;3.07;2.77;;;;;;;;;;5037844;22;20522;-91
2022/06/29 04:36:07;;;;;;;5.03;3.63;;;;;;;;;;5030355;28;20879;-90
2022/06/29 04:38:33;;;;;;;163.67;19.17;;;;;;;;;;5040227;28;20461;-90
2022/06/29 04:40:59;;;;;;;7.33;4.33;;;;;;;;;;5021357;28;20461;-91
2022/06/29 04:43:31;;;;;;;7.73;3.93;;;27.80;99.90;;;;;;5020154;28;20443;-91
2022/06/29 04:46:20;;;;;;;8.37;3.80;;;;;;;;;;5032443;28;20460;-89
2022/06/29 04:48:58;;;;;;;49.67;7.80;;;26.00;99.90;;;;;;5024549;28;20475;-89
2022/06/29 04:51:26;;;;;;;5.57;4.93;;;25.30;99.90;;;;;;5019519;28;20436;-89
2022/06/29 04:53:55;;;;;;;6.73;4.37;;;;;;;;;;5031304;28;20568;-91
2022/06/29 04:56:23;;;;;;;5.20;4.70;;;27.80;99.90;;;;;;5038565;28;20913;-90
2022/06/29 04:58:53;;;;;;;9.57;4.13;;;30.00;99.90;;;;;;5031519;28;20470;-92
2022/06/29 05:01:48;;;;;;;6.20;3.07;;;31.80;99.90;;;;;;5031153;28;20937;-93
2022/06/29 05:04:15;;;;;;;5.93;3.50;;;;;;;;;;5033641;28;20496;-91
2022/06/29 05:06:41;;;;;;;5.90;3.80;;;;;;;;;;5038233;28;20477;-91
2022/06/29 05:09:08;;;;;;;3.77;3.47;;;;;;;;;;5034835;28;20476;-92
2022/06/29 05:11:34;;;;;;;3.90;3.60;;;;;;;;;;5036593;28;20459;-91
2022/06/29 05:14:00;;;;;;;4.73;4.00;;;;;;;;;;5033009;28;20519;-91
2022/06/29 05:16:26;;;;;;;5.13;3.70;;;;;;;;;;5033775;28;20454;-92
2022/06/29 05:18:52;;;;;;;4.23;3.80;;;;;;;;;;5023175;28;20511;-90
2022/06/29 05:24:45;;;;;;;6.83;6.30;;;40.40;57.70;;;;;;5026854;28;20408;-91
2022/06/29 05:27:31;;;;;;;138.67;101.83;;;41.30;55.30;;;;;;5028683;28;20460;-89
2022/06/29 05:29:57;;;;;;;8.43;8.03;;;;;;;;;;5027958;28;20441;-90
2022/06/29 05:32:23;;;;;;;8.87;8.37;;;;;;;;;;5041266;28;20543;-91
2022/06/29 05:34:49;;;;;;;10.20;9.70;;;;;;;;;;5025017;28;20507;-92
2022/06/29 05:37:15;;;;;;;127.37;103.77;;;;;;;;;;5028919;28;20852;-89
2022/06/29 05:43:19;;;;;;;14.87;13.77;;;;;;;;;;5027718;28;20412;-93
2022/06/29 05:45:47;;;;;;;12.90;12.20;;;;;;;;;;5039122;28;20469;-92
2022/06/29 05:48:26;;;;;;;14.30;13.60;;;;;;;;;;5035243;28;20440;-90
2022/06/29 05:50:55;;;;;;;16.83;15.77;;;;;;;;;;5032462;28;20444;-90
2022/06/29 05:53:21;;;;;;;16.07;15.20;;;;;;;;;;5029140;28;20515;-92
2022/06/29 05:55:48;;;;;;;16.23;15.23;;;;;;;;;;5029012;28;20429;-93
2022/06/29 05:58:19;;;;;;;17.53;16.63;;;;;;;;;;5031139;28;20456;-91
2022/06/29 06:00:45;;;;;;;17.90;17.00;;;;;;;;;;5023052;28;20428;-90
2022/06/29 06:03:11;;;;;;;19.13;17.90;;;;;;;;;;5025756;28;20428;-89
2022/06/29 06:06:00;;;;;;;15.93;15.13;;;42.80;43.20;;;;;;5025251;28;20462;-91
2022/06/29 06:08:31;;;;;;;17.07;16.17;;;;;;;;;;5031247;28;20495;-91
2022/06/29 06:10:57;;;;;;;17.13;16.10;;;;;;;;;;5028702;28;20417;-90
2022/06/29 06:13:44;;;;;;;18.17;16.97;;;44.50;41.20;;;;;;5017134;28;20494;-92
2022/06/29 06:16:40;;;;;;;17.20;16.20;;;45.60;40.30;;;;;;5032914;28;20455;-92
2022/06/29 06:19:11;;;;;;;18.00;16.90;;;;;;;;;;5014763;28;21388;-92
2022/06/29 06:21:56;;;;;;;18.23;17.13;;;42.90;41.20;;;;;;5032338;28;20852;-88
2022/06/29 06:24:34;;;;;;;19.30;18.20;;;;;;;;;;5036754;28;20431;-94
2022/06/29 06:30:29;;;;;;;17.73;16.70;;;;;;;;;;5043817;28;20439;-92
2022/06/29 06:32:55;;;;;;;17.40;16.30;;;;;;;;;;5042881;28;20471;-91
2022/06/29 06:35:36;;;;;;;18.70;17.70;;;43.40;42.30;;;;;;5039402;28;20484;-92
2022/06/29 06:38:04;;;;;;;19.03;18.00;;;;;;;;;;5031831;28;20436;-93
2022/06/29 06:43:17;;;;;;;16.60;15.70;;;;;;;;;;5026259;28;20491;-92
2022/06/29 06:45:43;;;;;;;19.33;18.23;;;;;;;;;;5029948;28;20459;-91
2022/06/29 06:48:17;;;;;;;18.30;16.93;;;;;;;;;;5024820;28;20520;-91
2022/06/29 06:50:45;;;;;;;21.83;20.00;;;;;;;;;;5051975;23;20416;-92
2022/06/29 06:53:12;;;;;;;18.53;17.43;;;;;;;;;;4983362;28;20477;-89
2022/06/29 06:55:37;;;;;;;20.40;19.20;;;;;;;;;;4985312;28;20439;-90
2022/06/29 06:58:03;;;;;;;19.10;17.60;;;;;;;;;;4982584;28;20434;-90
2022/06/29 07:00:30;;;;;;;18.83;17.43;;;;;;;;;;4977698;28;20187;-90
2022/06/29 07:02:56;;;;;;;18.23;17.20;;;;;;;;;;4983400;28;21026;-90
2022/06/29 07:05:22;;;;;;;18.47;17.33;;;;;;;;;;4986998;28;20608;-90
2022/06/29 07:07:48;;;;;;;20.30;18.50;;;;;;;;;;4982666;28;20179;-90
2022/06/29 07:10:14;;;;;;;18.13;16.67;;;;;;;;;;4972805;28;20441;-90
2022/06/29 07:12:40;;;;;;;18.70;17.30;;;;;;;;;;4978685;28;20577;-90
2022/06/29 07:15:06;;;;;;;17.57;16.40;;;;;;;;;;4973434;28;20438;-89
2022/06/29 07:17:32;;;;;;;20.97;19.40;;;;;;;;;;4977622;28;20446;-89
2022/06/29 07:19:58;;;;;;;15.70;14.83;;;;;;;;;;4976408;28;20445;-90
2022/06/29 07:22:24;;;;;;;15.63;14.50;;;;;;;;;;4972287;28;20463;-91
2022/06/29 07:24:50;;;;;;;17.47;16.27;;;;;;;;;;4977065;28;20448;-90
2022/06/29 07:27:16;;;;;;;16.57;15.27;;;;;;;;;;4972891;28;20534;-90
2022/06/29 07:29:42;;;;;;;16.80;15.80;;;;;;;;;;4971951;28;20529;-90
2022/06/29 07:32:08;;;;;;;17.13;16.03;;;;;;;;;;4968888;28;20861;-90
2022/06/29 07:34:34;;;;;;;16.80;15.80;;;;;;;;;;4978619;28;20439;-89
2022/06/29 07:37:00;;;;;;;16.80;15.60;;;;;;;;;;4975516;28;21381;-90
2022/06/29 07:39:30;;;;;;;17.40;15.87;;;;;;;;;;4984788;28;20540;-89
2022/06/29 07:41:56;;;;;;;17.93;16.90;;;;;;;;;;4989163;28;20459;-90
2022/06/29 07:44:22;;;;;;;18.17;17.17;;;;;;;;;;4975506;28;20509;-90
2022/06/29 07:46:47;;;;;;;18.10;17.10;;;;;;;;;;4972754;28;20613;-90
2022/06/29 07:49:14;;;;;;;20.07;18.97;;;;;;;;;;4987609;28;20192;-91
2022/06/29 07:51:40;;;;;;;17.97;16.60;;;;;;;;;;4978027;28;20237;-90
2022/06/29 07:54:06;;;;;;;18.43;17.47;;;;;;;;;;4979041;28;20959;-90
2022/06/29 07:56:33;;;;;;;18.30;17.30;;;;;;;;;;4978776;28;20453;-91
2022/06/29 07:59:02;;;;;;;19.23;18.03;;;;;;;;;;4987406;28;20437;-90
2022/06/29 08:01:28;;;;;;;15.77;14.80;;;;;;;;;;5006082;28;20435;-90
2022/06/29 08:03:54;;;;;;;15.87;14.63;;;;;;;;;;4996968;28;20533;-91
2022/06/29 08:06:21;;;;;;;16.60;15.70;;;;;;;;;;4984770;28;20462;-91
2022/06/29 08:08:47;;;;;;;14.87;14.00;;;;;;;;;;4990460;28;20458;-90
2022/06/29 08:11:13;;;;;;;17.17;16.07;;;;;;;;;;5004674;28;20473;-90
2022/06/29 08:13:38;;;;;;;13.60;12.70;;;;;;;;;;4980207;28;20443;-90
2022/06/29 08:16:07;;;;;;;14.53;13.53;;;42.30;42.70;;;;;;4975251;28;20443;-90
2022/06/29 08:18:34;;;;;;;14.17;13.43;;;41.20;42.40;;;;;;4974286;28;20451;-91
2022/06/29 08:21:02;;;;;;;16.17;15.30;;;;;;;;;;4977426;28;20516;-91
2022/06/29 08:23:28;;;;;;;16.30;15.40;;;;;;;;;;4979280;28;20445;-90
2022/06/29 08:25:54;;;;;;;17.43;16.33;;;;;;;;;;4979634;28;20469;-90
2022/06/29 08:28:20;;;;;;;16.37;15.37;;;;;;;;;;4976061;28;20435;-90
2022/06/29 08:30:46;;;;;;;17.17;16.00;;;;;;;;;;4972119;28;20435;-90
2022/06/29 08:33:12;;;;;;;16.30;15.10;;;;;;;;;;4971530;28;20438;-90
2022/06/29 08:35:39;;;;;;;17.20;16.10;;;;;;;;;;4983964;28;20457;-90
2022/06/29 08:38:08;;;;;;;16.27;15.07;;;;;;;;;;4975343;28;20509;-90
2022/06/29 08:40:48;;;;;;;16.20;14.90;;;36.40;49.80;;;;;;4980923;28;20429;-90
2022/06/29 08:43:16;;;;;;;14.60;13.60;;;36.60;50.20;;;;;;4976084;28;20450;-90
2022/06/29 08:45:44;;;;;;;15.17;14.33;;;36.10;50.80;;;;;;4975956;28;20509;-90
2022/06/29 08:48:11;;;;;;;14.60;13.60;;;;;;;;;;4976987;28;20511;-89
2022/06/29 08:50:41;;;;;;;12.80;12.00;;;35.30;51.40;;;;;;4979415;28;20580;-90
2022/06/29 08:53:08;;;;;;;12.93;12.13;;;34.40;54.10;;;;;;4982149;28;20438;-90
2022/06/29 08:55:39;;;;;;;12.10;11.10;;;36.30;53.60;;;;;;4977468;28;21004;-89
2022/06/29 08:58:06;;;;;;;12.73;11.90;;;38.80;51.10;;;;;;4990483;28;20446;-90
2022/06/29 09:00:36;;;;;;;13.73;12.73;;;;;;;;;;4978290;28;20568;-91
2022/06/29 09:03:02;;;;;;;14.17;13.27;;;;;;;;;;4972067;28;20486;-91
2022/06/29 09:05:28;;;;;;;14.60;13.83;;;;;;;;;;4975201;28;20495;-90
2022/06/29 09:07:54;;;;;;;14.60;13.90;;;;;;;;;;4978279;28;20478;-90
2022/06/29 09:10:23;;;;;;;15.63;14.70;;;;;;;;;;4980048;28;20562;-91
2022/06/29 09:12:52;;;;;;;15.57;14.63;;;35.90;49.90;;;;;;4986201;28;21339;-90
2022/06/29 09:15:55;;;;;;;13.77;12.63;;;34.10;53.50;;;;;;4975450;28;20444;-91
2022/06/29 09:18:25;;;;;;;13.90;12.70;;;34.00;55.50;;;;;;4960975;28;20471;-90
2022/06/29 09:20:55;;;;;;;13.13;12.33;;;34.50;55.30;;;;;;4999453;28;20469;-90
2022/06/29 09:23:21;;;;;;;12.43;11.43;;;;;;;;;;4975149;28;20472;-90
2022/06/29 09:25:48;;;;;;;11.63;10.73;;;;;;;;;;4962937;28;20494;-90
2022/06/29 09:28:34;;;;;;;10.07;9.17;;;31.00;63.50;;;;;;4973744;28;21108;-90
2022/06/29 09:31:00;;;;;;;9.83;8.93;;;;;;;;;;5010792;28;20433;-91
2022/06/29 09:33:28;;;;;;;7.90;7.20;;;29.20;73.50;;;;;;4990482;28;22108;-89
2022/06/29 09:36:05;;;;;;;12.50;7.20;;;28.70;77.50;;;;;;4979424;28;20469;-90
2022/06/29 09:38:31;;;;;;;9.10;8.20;;;;;;;;;;4976386;28;20484;-89
2022/06/29 09:41:07;;;;;;;9.57;7.40;;;27.90;85.60;;;;;;4997724;28;20553;-90
2022/06/29 09:43:40;;;;;;;9.40;6.80;;;27.70;95.60;;;;;;5004677;28;20462;-90
2022/06/29 09:46:08;;;;;;;6.50;5.90;;;27.80;91.80;;;;;;4999671;28;20493;-91
2022/06/29 09:48:36;;;;;;;7.83;6.30;;;28.00;93.40;;;;;;5000838;28;20990;-89
2022/06/29 09:51:30;;;;;;;7.63;6.13;;;28.40;94.20;;;;;;4983275;28;20529;-90
2022/06/29 09:53:52;;;;;;;5.87;5.20;;;28.20;96.70;;;;;;4980482;28;20448;-90
2022/06/29 09:56:19;;;;;;;6.17;5.50;;;28.00;97.40;;;;;;4986558;28;20522;-90
2022/06/29 09:58:46;;;;;;;5.80;5.27;;;28.10;98.10;;;;;;4977482;28;20451;-90
2022/06/29 10:04:01;;;;;;;6.93;6.10;;;28.30;98.80;;;;;;4978004;28;20446;-89
2022/06/29 10:06:28;;;;;;;10.00;5.30;;;28.00;98.60;;;;;;4984363;28;20507;-91
2022/06/29 10:08:54;;;;;;;6.00;5.40;;;;;;;;;;4975435;28;20438;-90
2022/06/29 10:14:43;;;;;;;6.33;5.37;;;26.90;99.90;;;;;;4994779;28;20457;-90
2022/06/29 10:17:32;;;;;;;8.47;5.00;;;27.10;99.90;;;;;;4983574;28;20450;-90
2022/06/29 10:20:29;;;;;;;6.60;4.70;;;27.60;99.90;;;;;;4977401;28;20453;-90
2022/06/29 10:22:55;;;;;;;5.90;5.30;;;;;;;;;;4975293;28;20462;-90
2022/06/29 10:25:27;;;;;;;6.60;5.20;;;;;;;;;;4972002;28;20478;-89
2022/06/29 10:28:16;;;;;;;6.63;5.90;;;28.10;99.90;;;;;;4983519;28;20433;-90
2022/06/29 10:30:43;;;;;;;7.10;4.93;;;28.00;99.90;;;;;;4980877;28;21068;-90
2022/06/29 10:33:33;;;;;;;11.33;4.80;;;28.90;99.90;;;;;;4978495;28;20433;-90
2022/06/29 10:36:07;;;;;;;5.27;4.77;;;29.00;99.90;;;;;;4986301;28;20821;-89
2022/06/29 10:38:58;;;;;;;5.23;4.73;;;30.00;99.90;;;;;;4974069;28;20458;-90
2022/06/29 10:44:09;;;;;;;6.40;5.20;;;;;;;;;;4979989;28;20482;-90
2022/06/29 10:47:20;;;;;;;7.20;5.20;;;31.10;93.70;;;;;;4978122;28;20478;-90
2022/06/29 10:49:46;;;;;;;7.60;5.17;;;;;;;;;;4932782;29;20463;-91
2022/06/29 10:52:12;;;;;;;7.40;5.50;;;;;;;;;;4966373;28;20471;-91
2022/06/29 10:54:38;;;;;;;6.20;5.60;;;;;;;;;;4978348;28;20429;-90
2022/06/29 10:57:04;;;;;;;6.40;5.33;;;;;;;;;;4979838;28;20441;-91
2022/06/29 10:59:30;;;;;;;6.27;5.67;;;28.20;95.90;;;;;;5010561;28;20439;-93
2022/06/29 11:02:09;;;;;;;10.90;5.40;;;27.90;99.90;;;;;;4998270;28;20468;-90
2022/06/29 11:04:35;;;;;;;7.20;6.03;;;;;;;;;;4982745;28;20431;-90
2022/06/29 11:12:52;;;;;;;6.60;5.53;;;26.70;99.90;;;;;;4989354;28;21058;-90
2022/06/29 11:15:40;;;;;;;9.00;5.87;;;27.20;99.90;;;;;;4996774;28;20421;-91
2022/06/29 11:18:13;;;;;;;7.17;6.03;;;27.50;99.90;;;;;;4997506;28;20458;-90
2022/06/29 11:20:40;;;;;;;5.33;4.83;;;28.10;99.90;;;;;;4992430;28;20437;-91
2022/06/29 11:23:14;;;;;;;6.33;5.73;;;28.10;99.90;;;;;;4987141;28;20436;-89
2022/06/29 11:25:43;;;;;;;6.53;5.90;;;27.60;99.90;;;;;;4980751;28;20586;-90
2022/06/29 11:28:09;;;;;;;12.80;6.10;;;;;;;;;;4980000;28;20471;-89
2022/06/29 11:30:35;;;;;;;6.63;5.93;;;;;;;;;;4986871;28;20432;-89
2022/06/29 11:33:10;;;;;;;7.40;6.43;;;26.80;99.90;;;;;;4975298;28;20496;-91
2022/06/29 11:35:36;;;;;;;11.97;6.23;;;;;;;;;;4995302;28;20452;-89
2022/06/29 11:38:02;;;;;;;12.47;6.07;;;;;;;;;;4990717;28;20471;-90
2022/06/29 11:40:38;;;;;;;11.03;6.47;;;28.30;99.90;;;;;;4978429;28;21198;-90
2022/06/29 11:43:08;;;;;;;6.63;5.90;;;28.60;99.90;;;;;;4991511;28;21035;-90
2022/06/29 11:45:38;;;;;;;10.73;5.87;;;28.50;99.90;;;;;;4979347;28;21277;-89
2022/06/29 11:48:11;;;;;;;5.80;5.17;;;28.50;99.90;;;;;;4982418;28;20459;-90
2022/06/29 11:50:53;;;;;;;6.77;5.50;;;28.80;99.90;;;;;;4988849;28;20792;-89
2022/06/29 11:53:44;;;;;;;10.33;5.80;;;28.70;99.90;;;;;;4985166;28;21121;-90
2022/06/29 11:56:14;;;;;;;6.17;5.00;;;28.80;99.90;;;;;;4989715;28;21131;-89
2022/06/29 11:58:43;;;;;;;11.63;5.77;;;29.70;99.90;;;;;;4980446;28;20434;-89
2022/06/29 12:01:18;;;;;;;5.73;5.07;;;30.10;99.00;;;;;;4980431;28;20461;-88
2022/06/29 12:03:49;;;;;;;5.70;5.20;;;30.70;99.90;;;;;;4987091;28;20514;-88
2022/06/29 12:06:15;;;;;;;4.90;4.50;;;30.60;96.40;;;;;;4995145;28;20471;-88
2022/06/29 12:08:41;;;;;;;6.27;5.30;;;;;;;;;;4981299;28;21122;-89
2022/06/29 12:11:07;;;;;;;6.93;5.47;;;;;;;;;;4992529;28;20477;-88
2022/06/29 12:13:33;;;;;;;6.23;5.60;;;;;;;;;;4985413;28;20825;-87
2022/06/29 12:15:59;;;;;;;11.47;5.87;;;;;;;;;;4977443;28;20450;-86
2022/06/29 12:18:25;;;;;;;11.50;5.33;;;;;;;;;;4981944;28;20447;-87
2022/06/29 12:20:51;;;;;;;6.00;5.40;;;;;;;;;;5000076;28;20446;-87
2022/06/29 12:23:17;;;;;;;5.60;5.10;;;;;;;;;;4982484;28;20431;-88
2022/06/29 12:25:43;;;;;;;7.00;5.23;;;;;;;;;;4980324;28;20477;-87
2022/06/29 12:28:09;;;;;;;7.80;6.03;;;;;;;;;;4994311;28;20438;-86
2022/06/29 12:30:36;;;;;;;8.23;5.60;;;;;;;;;;5006357;28;20475;-85
2022/06/29 12:33:02;;;;;;;7.87;5.43;;;;;;;;;;4994660;28;20537;-87
2022/06/29 12:35:29;;;;;;;9.30;5.70;;;;;;;;;;4986128;28;20406;-87
2022/06/29 12:37:57;;;;;;;6.47;5.87;;;;;;;;;;4985825;28;20506;-87
2022/06/29 12:40:23;;;;;;;6.50;5.00;;;;;;;;;;4979527;28;20446;-88
2022/06/29 12:42:49;;;;;;;11.47;6.37;;;;;;;;;;4989898;28;21022;-87
2022/06/29 12:45:15;;;;;;;8.23;5.10;;;;;;;;;;4987858;28;20466;-87
2022/06/29 12:47:41;;;;;;;6.37;5.70;;;;;;;;;;4986145;28;20438;-88
2022/06/29 12:50:07;;;;;;;6.10;5.50;;;;;;;;;;5003440;28;20442;-85
2022/06/29 12:52:33;;;;;;;7.33;5.30;;;;;;;;;;5006378;23;20577;-82
2022/06/29 12:54:59;;;;;;;5.67;4.63;;;;;;;;;;5001251;28;20975;-83
2022/06/29 12:57:25;;;;;;;6.00;5.40;;;27.80;99.90;;;;;;5000508;28;20524;-81
2022/06/29 12:59:51;;;;;;;7.03;5.03;;;;;;;;;;5004209;28;20468;-82
2022/06/29 13:02:21;;;;;;;5.80;5.20;;;27.70;99.90;;;;;;5004169;28;20200;-82
2022/06/29 13:04:48;;;;;;;5.30;4.80;;;;;;;;;;5009361;28;20469;-82
2022/06/29 13:07:14;;;;;;;10.97;5.90;;;;;;;;;;4999555;28;20495;-82
2022/06/29 13:09:40;;;;;;;8.30;6.30;;;;;;;;;;4998027;28;20780;-81
2022/06/29 13:12:05;;;;;;;6.30;5.60;;;26.90;99.90;;;;;;4998182;28;20547;-81
2022/06/29 13:14:31;;;;;;;12.80;5.67;;;;;;;;;;4999659;28;20519;-80
2022/06/29 13:16:57;;;;;;;5.97;5.30;;;27.60;99.90;;;;;;5003476;28;20222;-82
2022/06/29 13:19:23;;;;;;;9.00;5.10;;;;;;;;;;4999239;28;20960;-81
2022/06/29 13:21:50;;;;;;;6.10;5.20;;;;;;;;;;5001876;28;20742;-82
2022/06/29 13:24:16;;;;;;;7.03;4.93;;;;;;;;;;4999818;28;20780;-82
2022/06/29 13:26:42;;;;;;;6.70;6.00;;;;;;;;;;5007809;28;20512;-81
2022/06/29 13:29:08;;;;;;;7.40;5.07;;;;;;;;;;5007238;28;20430;-82
2022/06/29 13:31:36;;;;;;;5.80;5.07;;;;;;;;;;5003317;28;20501;-80
2022/06/29 13:34:02;;;;;;;10.30;5.80;;;27.70;99.90;;;;;;5003051;28;20978;-81
2022/06/29 13:36:28;;;;;;;6.93;5.80;;;27.90;99.90;;;;;;5002138;28;20438;-81
2022/06/29 13:38:53;;;;;;;5.90;5.23;;;;;;;;;;4999563;28;20202;-81
2022/06/29 13:41:20;;;;;;;11.30;4.70;;;;;;;;;;4998078;28;20208;-81
2022/06/29 13:43:46;;;;;;;5.60;5.13;;;;;;;;;;4997169;28;20866;-80
2022/06/29 13:46:12;;;;;;;8.40;5.27;;;;;;;;;;4998046;28;20472;-80
2022/06/29 13:48:38;;;;;;;6.90;4.80;;;;;;;;;;5003163;28;20452;-81
2022/06/29 13:51:04;;;;;;;5.50;5.03;;;;;;;;;;5001587;28;20445;-78
2022/06/29 13:53:30;;;;;;;6.63;4.97;;;;;;;;;;5001369;28;20449;-81
2022/06/29 13:55:56;;;;;;;7.20;5.73;;;;;;;;;;4998823;28;20895;-80
2022/06/29 13:58:22;;;;;;;7.10;4.70;;;;;;;;;;5008414;28;20430;-81
2022/06/29 14:00:48;;;;;;;5.40;4.90;;;;;;;;;;4996762;28;20490;-80
2022/06/29 14:03:14;;;;;;;6.63;5.63;;;;;;;;;;5003062;28;20520;-82
2022/06/29 14:05:40;;;;;;;7.87;5.60;;;;;;;;;;5003976;28;20511;-81
2022/06/29 14:08:06;;;;;;;10.20;4.70;;;;;;;;;;5000541;28;21005;-80
2022/06/29 14:10:32;;;;;;;5.47;4.97;;;;;;;;;;5000268;28;20449;-80
2022/06/29 14:12:58;;;;;;;8.60;4.97;;;;;;;;;;4998461;28;20440;-80
2022/06/29 14:15:24;;;;;;;5.33;4.67;;;27.10;99.90;;;;;;4996440;28;20527;-84
2022/06/29 14:17:50;;;;;;;5.10;4.70;;;;;;;;;;5003888;28;20463;-80
2022/06/29 14:20:15;;;;;;;10.40;5.40;;;28.00;99.90;;;;;;5003018;28;20197;-81
2022/06/29 14:22:41;;;;;;;8.10;5.10;;;27.80;99.90;;;;;;5000516;28;20451;-81
2022/06/29 14:25:08;;;;;;;6.23;4.80;;;27.70;99.90;;;;;;4999533;28;20190;-80
2022/06/29 14:27:34;;;;;;;5.43;4.47;;;28.10;99.90;;;;;;4999443;28;20189;-81
2022/06/29 14:30:00;;;;;;;5.80;4.30;;;28.00;99.90;;;;;;4998692;28;20418;-80
2022/06/29 14:32:26;;;;;;;6.10;5.50;;;28.50;99.90;;;;;;5000746;28;20461;-80
2022/06/29 14:34:51;;;;;;;7.57;5.37;;;28.60;99.90;;;;;;5005078;28;20426;-80
2022/06/29 14:37:17;;;;;;;6.73;4.60;;;;;;;;;;5000664;28;20481;-80
2022/06/29 14:39:44;;;;;;;5.70;4.93;;;;;;;;;;4998244;28;20188;-81
2022/06/29 14:42:11;;;;;;;7.77;5.33;;;;;;;;;;5001113;28;20450;-81
2022/06/29 14:44:36;;;;;;;13.00;4.70;;;28.90;99.90;;;;;;4997318;28;20461;-81
2022/06/29 14:47:02;;;;;;;5.13;4.63;;;28.70;99.90;;;;;;4995007;28;20498;-81
2022/06/29 14:49:28;;;;;;;11.53;4.70;;;;;;;;;;5005859;28;20631;-81
2022/06/29 14:51:54;;;;;;;7.17;4.87;;;;;;;;;;5001665;28;20270;-79